In Rescue
 
Open Full Screen Window  High Contrast Mode
Wind Gusting 00 knots
10
May 25, 2022 8:06 PM CDT
Weather Information
Wind Direction
  040 °
Wind Speed
  10 kt (12 mph)
Wind Gust
  00 kt (0 mph)
Altimeter
29.89 in
Visibility
10 SM
Temperature
10° C
50° F
Dewpoint
08° C
46° F
Humidity
88%
1hr Rain Fall
00.00 in.
24hr Rain Fall
00.06 in.
Sky Condition
Overcast @ 2,200 ft
Scattered @ 1,400 ft
MVFR

METAR KOVL 260106Z AUTO 04010KT 10SM SCT014 OVC022 10/08 A2989 RMK AO2

FAA Disclaimer: The data displayed is for advisory purposes only and is not to be used for flight planning or operations.